Lee Vining, California
Current Conditions -  °F | °C
As of 7:15 PM on Friday 21 Nov 2014 (Local Time) from KMMH Reporting Station
Broken Clouds Broken Clouds  
Wind Chill: 39°   Ceiling: 6500
Heat Index: 39°   Visibility: 10mi
Dew Point: 14°   Wind: 0mph
Humidity: 36%   Direction: NA
Pressure: 30.14"   Gusts: NA
Location:  37.96°N, 119.12°W
Report Text: KMMH 220315Z AUTO 00000KT 10SM SCT050 BKN065 BKN080 04/M10 A3014 RMK AO1
Loading
Personal Weather Stations






























Interactive Weather Map New forecast layout! Learn more

10-Day Weather Forecast

Advertisements
Track Severe Weather on mobile